createdAt,value
2023-04-09T00:00:47.324Z,3.60
2023-04-09T00:03:13.734Z,3.61
2023-04-09T00:05:40.856Z,3.60
2023-04-09T00:08:07.830Z,3.61
2023-04-09T00:10:34.182Z,3.60
2023-04-09T00:13:00.619Z,3.64
2023-04-09T00:15:31.157Z,3.64
2023-04-09T00:17:58.236Z,3.67
2023-04-09T00:20:24.609Z,3.62
2023-04-09T00:22:51.778Z,3.62
2023-04-09T00:25:18.494Z,3.62
2023-04-09T00:27:44.822Z,3.62
2023-04-09T00:30:11.562Z,3.60
2023-04-09T00:32:37.935Z,3.60
2023-04-09T00:35:04.393Z,3.60
2023-04-09T00:37:30.805Z,3.60
2023-04-09T00:39:57.157Z,3.59
2023-04-09T00:42:23.730Z,3.59
2023-04-09T00:44:50.229Z,3.60
2023-04-09T00:47:16.822Z,3.62
2023-04-09T00:49:44.497Z,3.60
2023-04-09T00:52:10.987Z,3.60
2023-04-09T00:54:37.404Z,3.60
2023-04-09T00:57:03.834Z,3.61
2023-04-09T00:59:30.273Z,3.60
2023-04-09T01:01:56.843Z,3.60
2023-04-09T01:04:23.787Z,3.63
2023-04-09T01:06:52.768Z,3.66
2023-04-09T01:09:28.463Z,3.69
2023-04-09T01:12:07.021Z,3.69
2023-04-09T01:14:36.331Z,3.70
2023-04-09T01:17:07.141Z,3.71
2023-04-09T01:19:33.428Z,3.73
2023-04-09T01:22:00.475Z,3.74
2023-04-09T01:24:40.426Z,3.75
2023-04-09T01:27:07.859Z,3.77
2023-04-09T01:29:46.444Z,3.81
2023-04-09T01:32:14.069Z,3.77
2023-04-09T01:34:41.284Z,3.79
2023-04-09T01:37:08.739Z,3.79
2023-04-09T01:39:36.796Z,3.81
2023-04-09T01:42:03.884Z,3.84
2023-04-09T01:44:30.561Z,3.82
2023-04-09T01:46:58.021Z,3.81
2023-04-09T01:49:24.508Z,3.80
2023-04-09T01:51:50.899Z,3.80
2023-04-09T01:54:17.326Z,3.77
2023-04-09T01:56:44.548Z,3.74
2023-04-09T01:59:11.089Z,3.73
2023-04-09T02:01:54.964Z,3.73
2023-04-09T02:04:33.050Z,3.72
2023-04-09T02:07:05.574Z,3.72
2023-04-09T02:09:34.019Z,3.72
2023-04-09T02:12:02.815Z,3.71
2023-04-09T02:14:31.472Z,3.70
2023-04-09T02:16:58.196Z,3.71
2023-04-09T02:19:24.487Z,3.71
2023-04-09T02:21:50.816Z,3.69
2023-04-09T02:24:17.123Z,3.68
2023-04-09T02:26:43.444Z,3.68
2023-04-09T02:29:09.787Z,3.67
2023-04-09T02:31:36.230Z,3.67
2023-04-09T02:34:02.724Z,3.64
2023-04-09T02:36:29.058Z,3.59
2023-04-09T02:38:55.448Z,3.54
2023-04-09T02:41:21.983Z,3.50
2023-04-09T02:43:48.316Z,3.47
2023-04-09T02:46:14.665Z,3.43
2023-04-09T02:48:41.011Z,3.43
2023-04-09T02:51:08.207Z,3.44
2023-04-09T02:53:34.554Z,3.42
2023-04-09T02:56:00.922Z,3.44
2023-04-09T02:58:27.261Z,3.44
2023-04-09T03:00:53.559Z,3.46
2023-04-09T03:03:20.086Z,3.48
2023-04-09T03:05:46.560Z,3.50
2023-04-09T03:08:12.863Z,3.53
2023-04-09T03:10:39.206Z,3.54
2023-04-09T03:13:05.801Z,3.50
2023-04-09T03:15:32.130Z,3.49
2023-04-09T03:17:58.462Z,3.51
2023-04-09T03:20:24.839Z,3.53
2023-04-09T03:22:51.218Z,3.51
2023-04-09T03:25:19.454Z,3.55
2023-04-09T03:27:45.917Z,3.57
2023-04-09T03:30:12.282Z,3.60
2023-04-09T03:32:38.613Z,3.63
2023-04-09T03:35:05.331Z,3.66
2023-04-09T03:37:31.649Z,3.69
2023-04-09T03:39:57.985Z,3.69
2023-04-09T03:42:24.329Z,3.68
2023-04-09T03:44:53.148Z,3.71
2023-04-09T03:47:19.590Z,3.73
2023-04-09T03:49:45.932Z,3.73
2023-04-09T03:52:12.235Z,3.75
2023-04-09T03:54:38.621Z,3.76
2023-04-09T03:57:04.944Z,3.76
2023-04-09T03:59:31.249Z,3.78
2023-04-09T04:01:57.678Z,3.79
2023-04-09T04:04:24.188Z,3.80
2023-04-09T04:06:50.889Z,3.81
2023-04-09T04:09:17.344Z,3.81
2023-04-09T04:11:43.746Z,3.79
2023-04-09T04:14:10.240Z,3.76
2023-04-09T04:16:36.650Z,3.72
2023-04-09T04:19:02.976Z,3.70
2023-04-09T04:21:29.307Z,3.70
2023-04-09T04:23:55.697Z,3.73
2023-04-09T04:26:22.016Z,3.76
2023-04-09T04:28:50.544Z,3.79
2023-04-09T04:31:17.204Z,3.81
2023-04-09T04:33:43.540Z,3.79
2023-04-09T04:36:11.436Z,3.82
2023-04-09T04:38:38.442Z,3.81
2023-04-09T04:41:05.303Z,3.81
2023-04-09T04:43:32.403Z,3.82
2023-04-09T04:45:58.742Z,3.80
2023-04-09T04:48:25.247Z,3.81
2023-04-09T04:50:55.283Z,3.83
2023-04-09T04:53:21.652Z,3.85
2023-04-09T04:55:47.995Z,3.87
2023-04-09T04:58:14.302Z,3.89
2023-04-09T05:00:40.734Z,3.89
2023-04-09T05:03:07.433Z,3.92
2023-04-09T05:05:33.785Z,3.95
2023-04-09T05:08:00.448Z,3.95
2023-04-09T05:10:26.799Z,3.97
2023-04-09T05:12:53.151Z,3.99
2023-04-09T05:15:19.542Z,4.03
2023-04-09T05:17:45.897Z,4.02
2023-04-09T05:20:12.475Z,4.06
2023-04-09T05:22:38.782Z,4.10
2023-04-09T05:25:05.385Z,4.13
2023-04-09T05:27:31.699Z,4.15
2023-04-09T05:30:00.324Z,4.17
2023-04-09T05:32:27.184Z,4.18
2023-04-09T05:34:53.546Z,4.19
2023-04-09T05:37:19.908Z,4.22
2023-04-09T05:39:46.325Z,4.23
2023-04-09T05:42:12.680Z,4.27
2023-04-09T05:44:39.019Z,4.32
2023-04-09T05:47:05.433Z,4.39
2023-04-09T05:49:32.163Z,4.42
2023-04-09T05:51:58.551Z,4.46
2023-04-09T05:54:26.038Z,4.51
2023-04-09T05:56:52.444Z,4.50
2023-04-09T05:59:18.969Z,4.54
2023-04-09T06:01:45.497Z,4.54
2023-04-09T06:04:12.713Z,4.61
2023-04-09T06:06:39.397Z,4.71
2023-04-09T06:09:05.919Z,4.76
2023-04-09T06:11:32.319Z,4.82
2023-04-09T06:13:58.663Z,4.88
2023-04-09T06:16:25.439Z,4.94
2023-04-09T06:18:54.506Z,5.04
2023-04-09T06:21:20.945Z,5.04
2023-04-09T06:23:47.254Z,5.09
2023-04-09T06:26:14.037Z,5.14
2023-04-09T06:28:40.391Z,5.20
2023-04-09T06:31:07.214Z,5.17
2023-04-09T06:33:33.674Z,5.29
2023-04-09T06:36:00.149Z,5.40
2023-04-09T06:38:26.632Z,5.49
2023-04-09T06:40:52.941Z,5.53
2023-04-09T06:43:19.290Z,5.59
2023-04-09T06:45:45.607Z,5.67
2023-04-09T06:48:11.901Z,5.74
2023-04-09T06:50:43.532Z,5.80
2023-04-09T06:53:10.385Z,5.80
2023-04-09T06:55:36.734Z,5.81
2023-04-09T06:58:03.312Z,5.83
2023-04-09T07:00:29.645Z,5.88
2023-04-09T07:02:56.769Z,6.01
2023-04-09T07:05:23.950Z,6.10
2023-04-09T07:07:50.628Z,6.21
2023-04-09T07:10:17.038Z,6.30
2023-04-09T07:12:43.376Z,6.31
2023-04-09T07:15:09.777Z,6.40
2023-04-09T07:17:36.159Z,6.44
2023-04-09T07:20:02.488Z,6.57
2023-04-09T07:22:29.109Z,6.58
2023-04-09T07:24:55.660Z,6.64
2023-04-09T07:27:23.231Z,6.69
2023-04-09T07:29:49.771Z,6.74
2023-04-09T07:32:16.392Z,6.72
2023-04-09T07:34:45.372Z,6.82
2023-04-09T07:37:12.542Z,6.91
2023-04-09T07:39:38.862Z,7.10
2023-04-09T07:42:05.879Z,7.10
2023-04-09T07:44:36.382Z,7.09
2023-04-09T07:47:06.998Z,7.12
2023-04-09T07:49:34.703Z,7.06
2023-04-09T07:52:01.101Z,7.25
2023-04-09T07:54:28.403Z,7.33
2023-04-09T07:56:54.889Z,7.51
2023-04-09T07:59:21.290Z,7.71
2023-04-09T08:01:47.686Z,7.77
2023-04-09T08:04:14.353Z,7.84
2023-04-09T08:06:41.340Z,7.75
2023-04-09T08:09:07.893Z,7.87
2023-04-09T08:11:34.366Z,8.08
2023-04-09T08:14:02.913Z,8.10
2023-04-09T08:16:30.444Z,8.23
2023-04-09T08:18:57.140Z,8.29
2023-04-09T08:21:24.569Z,8.42
2023-04-09T08:23:51.219Z,8.48
2023-04-09T08:26:17.854Z,8.49
2023-04-09T08:28:44.169Z,8.53
2023-04-09T08:31:10.477Z,8.64
2023-04-09T08:33:36.792Z,8.68
2023-04-09T08:36:07.879Z,8.90
2023-04-09T08:41:25.420Z,8.71
2023-04-09T08:43:58.236Z,8.94
2023-04-09T08:46:26.373Z,9.12
2023-04-09T08:48:53.181Z,9.21
2023-04-09T08:51:21.294Z,9.30
2023-04-09T08:53:50.422Z,9.44
2023-04-09T08:56:16.864Z,9.25
2023-04-09T08:58:44.650Z,9.30
2023-04-09T09:01:24.148Z,9.51
2023-04-09T09:03:53.330Z,9.57
2023-04-09T09:06:24.078Z,9.43
2023-04-09T09:09:20.029Z,9.83
2023-04-09T09:11:48.362Z,10.30
2023-04-09T09:14:15.991Z,10.14
2023-04-09T09:16:43.767Z,10.36
2023-04-09T09:19:27.817Z,10.42
2023-04-09T09:21:57.667Z,10.39
2023-04-09T09:24:24.068Z,10.37
2023-04-09T09:26:50.459Z,10.44
2023-04-09T09:29:17.065Z,10.37
2023-04-09T09:31:49.104Z,10.56
2023-04-09T09:34:17.190Z,10.41
2023-04-09T09:36:43.534Z,10.41
2023-04-09T09:39:10.632Z,10.53
2023-04-09T09:41:37.167Z,10.72
2023-04-09T09:44:04.559Z,10.79
2023-04-09T09:46:35.269Z,11.01
2023-04-09T09:49:01.697Z,10.94
2023-04-09T09:51:28.788Z,10.98
2023-04-09T09:53:56.603Z,10.98
2023-04-09T09:56:32.327Z,10.89
2023-04-09T09:59:13.095Z,10.85
2023-04-09T10:01:40.579Z,10.78
2023-04-09T10:04:13.366Z,10.86
2023-04-09T10:06:42.900Z,10.77
2023-04-09T10:09:09.897Z,11.05
2023-04-09T10:11:37.364Z,11.30
2023-04-09T10:14:05.144Z,11.33
2023-04-09T10:16:31.707Z,11.32
2023-04-09T10:18:59.309Z,11.83
2023-04-09T10:21:33.398Z,12.17
2023-04-09T10:24:00.267Z,12.46
2023-04-09T10:26:31.046Z,12.41
2023-04-09T10:29:13.879Z,12.37
2023-04-09T10:31:55.287Z,12.42
2023-04-09T10:34:27.169Z,12.70
2023-04-09T10:36:55.933Z,12.48
2023-04-09T10:39:26.359Z,12.47
2023-04-09T10:41:53.530Z,12.68
2023-04-09T10:44:20.629Z,12.93
2023-04-09T10:46:47.392Z,13.16
2023-04-09T10:49:21.495Z,13.33
2023-04-09T10:51:51.910Z,13.42
2023-04-09T10:54:33.643Z,13.23
2023-04-09T10:57:08.965Z,13.09
2023-04-09T10:59:36.209Z,12.67
2023-04-09T11:02:03.868Z,12.38
2023-04-09T11:04:46.538Z,12.97
2023-04-09T11:07:15.399Z,14.11
2023-04-09T11:09:41.783Z,15.57
2023-04-09T11:12:08.188Z,15.15
2023-04-09T11:14:34.482Z,14.93
2023-04-09T11:17:02.982Z,14.58
2023-04-09T11:19:29.496Z,14.49
2023-04-09T11:21:55.889Z,14.26
2023-04-09T11:24:22.936Z,13.95
2023-04-09T11:26:50.576Z,14.10
2023-04-09T11:29:16.912Z,14.71
2023-04-09T11:31:46.342Z,15.58
2023-04-09T11:34:12.783Z,15.39
2023-04-09T11:36:39.125Z,15.15
2023-04-09T11:39:05.646Z,14.89
2023-04-09T11:41:36.056Z,15.33
2023-04-09T11:44:04.031Z,16.18
2023-04-09T11:46:32.697Z,17.53
2023-04-09T11:48:59.281Z,18.81
2023-04-09T11:51:27.117Z,18.87
2023-04-09T11:53:53.612Z,19.39
2023-04-09T11:56:20.526Z,18.77
2023-04-09T11:58:47.619Z,18.47
2023-04-09T12:01:14.317Z,18.26
2023-04-09T12:03:41.182Z,17.10
2023-04-09T12:06:09.217Z,17.67
2023-04-09T12:08:36.364Z,19.13
2023-04-09T12:11:13.016Z,19.10
2023-04-09T12:13:45.259Z,20.13
2023-04-09T12:16:12.460Z,20.64
2023-04-09T12:18:39.613Z,21.26
2023-04-09T12:21:06.261Z,21.01
2023-04-09T12:23:33.321Z,20.50
2023-04-09T12:26:01.196Z,20.59
2023-04-09T12:28:27.847Z,20.42
2023-04-09T12:30:54.495Z,20.18
2023-04-09T12:33:21.748Z,19.41
2023-04-09T12:35:48.113Z,19.34
2023-04-09T12:38:14.431Z,18.39
2023-04-09T12:40:40.793Z,17.58
2023-04-09T12:43:07.110Z,17.15
2023-04-09T12:45:33.469Z,17.40
2023-04-09T12:47:59.943Z,17.98
2023-04-09T12:50:26.377Z,18.00
2023-04-09T12:52:52.813Z,18.35
2023-04-09T12:55:19.225Z,18.30
2023-04-09T12:57:46.991Z,17.57
2023-04-09T13:00:13.817Z,17.09
2023-04-09T13:02:40.346Z,16.57
2023-04-09T13:05:07.409Z,16.47
2023-04-09T13:07:33.855Z,16.29
2023-04-09T13:10:00.314Z,15.81
2023-04-09T13:12:26.899Z,15.63
2023-04-09T13:14:54.026Z,14.99
2023-04-09T13:17:20.791Z,14.27
2023-04-09T13:19:47.156Z,13.48
2023-04-09T13:22:13.517Z,13.08
2023-04-09T13:24:39.874Z,13.22
2023-04-09T13:27:07.053Z,13.28
2023-04-09T13:29:33.399Z,13.78
2023-04-09T13:32:01.769Z,14.06
2023-04-09T13:34:28.185Z,15.27
2023-04-09T13:36:54.522Z,15.17
2023-04-09T13:39:21.044Z,16.03
2023-04-09T13:41:47.368Z,16.62
2023-04-09T13:44:13.794Z,17.27
2023-04-09T13:46:40.322Z,16.32
2023-04-09T13:49:06.903Z,16.16
2023-04-09T13:51:33.626Z,16.53
2023-04-09T13:53:59.965Z,15.40
2023-04-09T13:56:27.527Z,15.54
2023-04-09T13:58:54.173Z,15.65
2023-04-09T14:01:20.944Z,16.22
2023-04-09T14:03:47.345Z,16.75
2023-04-09T14:06:13.850Z,17.48
2023-04-09T14:08:40.353Z,18.17
2023-04-09T14:11:06.686Z,18.07
2023-04-09T14:13:32.993Z,18.13
2023-04-09T14:16:00.511Z,17.05
2023-04-09T14:18:27.080Z,17.14
2023-04-09T14:20:53.408Z,17.38
2023-04-09T14:23:19.777Z,16.32
2023-04-09T14:25:46.096Z,16.71
2023-04-09T14:28:12.552Z,16.75
2023-04-09T14:30:38.874Z,16.89
2023-04-09T14:33:05.472Z,17.28
2023-04-09T14:35:32.012Z,16.54
2023-04-09T14:37:58.347Z,16.69
2023-04-09T14:40:24.752Z,15.05
2023-04-09T14:42:51.187Z,15.36
2023-04-09T14:45:17.518Z,16.52
2023-04-09T14:47:43.905Z,17.25
2023-04-09T14:50:12.625Z,15.99
2023-04-09T14:52:39.099Z,16.08
2023-04-09T14:55:06.196Z,15.81
2023-04-09T14:57:32.599Z,16.12
2023-04-09T14:59:58.968Z,16.06
2023-04-09T15:02:25.628Z,16.27
2023-04-09T15:04:52.099Z,15.54
2023-04-09T15:07:18.585Z,15.28
2023-04-09T15:09:44.933Z,14.83
2023-04-09T15:12:11.296Z,14.14
2023-04-09T15:14:37.707Z,13.13
2023-04-09T15:17:04.051Z,12.79
2023-04-09T15:19:32.451Z,12.45
2023-04-09T15:21:58.778Z,11.66
2023-04-09T15:24:25.229Z,11.86
2023-04-09T15:26:51.572Z,11.94
2023-04-09T15:29:17.918Z,11.81
2023-04-09T15:31:44.231Z,11.56
2023-04-09T15:34:10.627Z,11.54
2023-04-09T15:36:36.977Z,11.25
2023-04-09T15:39:04.381Z,11.13
2023-04-09T15:41:32.329Z,11.25
2023-04-09T15:43:58.847Z,11.44
2023-04-09T15:46:25.350Z,11.31
2023-04-09T15:48:51.941Z,11.29
2023-04-09T15:51:18.425Z,11.32
2023-04-09T15:53:44.778Z,11.49
2023-04-09T15:56:12.076Z,11.38
2023-04-09T15:58:38.462Z,11.34
2023-04-09T16:01:08.125Z,10.98
2023-04-09T16:03:39.577Z,10.62
2023-04-09T16:06:09.707Z,10.54
2023-04-09T16:08:37.290Z,10.55
2023-04-09T16:11:04.462Z,10.41
2023-04-09T16:13:30.911Z,10.34
2023-04-09T16:15:57.284Z,10.38
2023-04-09T16:18:24.023Z,10.33
2023-04-09T16:20:53.879Z,10.22
2023-04-09T16:23:24.527Z,10.04
2023-04-09T16:25:50.914Z,9.74
2023-04-09T16:28:18.241Z,9.78
2023-04-09T16:30:44.786Z,9.59
2023-04-09T16:33:11.132Z,9.67
2023-04-09T16:35:39.424Z,9.66
2023-04-09T16:38:06.652Z,9.64
2023-04-09T16:40:33.215Z,9.62
2023-04-09T16:43:00.782Z,9.69
2023-04-09T16:45:27.333Z,9.72
2023-04-09T16:47:54.258Z,9.80
2023-04-09T16:50:20.968Z,9.78
2023-04-09T16:52:48.344Z,9.91
2023-04-09T16:55:14.707Z,9.83
2023-04-09T16:57:41.566Z,9.89
2023-04-09T17:00:08.457Z,9.89
2023-04-09T17:02:35.142Z,9.81
2023-04-09T17:05:02.024Z,9.61
2023-04-09T17:07:28.503Z,9.42
2023-04-09T17:09:54.911Z,9.30
2023-04-09T17:12:21.615Z,9.25
2023-04-09T17:14:47.966Z,9.24
2023-04-09T17:17:14.376Z,9.18
2023-04-09T17:19:42.809Z,9.16
2023-04-09T17:22:10.739Z,9.03
2023-04-09T17:24:37.265Z,8.91
2023-04-09T17:27:07.290Z,8.93
2023-04-09T17:29:33.984Z,8.94
2023-04-09T17:32:00.358Z,8.91
2023-04-09T17:34:26.756Z,8.87
2023-04-09T17:36:57.246Z,8.79
2023-04-09T17:39:26.501Z,8.73
2023-04-09T17:41:53.627Z,8.55
2023-04-09T17:44:20.566Z,8.47
2023-04-09T17:46:47.096Z,8.42
2023-04-09T17:49:13.528Z,8.40
2023-04-09T17:51:39.873Z,8.34
2023-04-09T17:54:06.712Z,8.23
2023-04-09T17:56:35.403Z,8.13
2023-04-09T17:59:02.195Z,8.07
2023-04-09T18:01:28.875Z,7.91
2023-04-09T18:03:55.449Z,7.70
2023-04-09T18:06:21.951Z,7.59
2023-04-09T18:08:50.000Z,7.46
2023-04-09T18:11:18.345Z,7.35
2023-04-09T18:13:44.712Z,7.24
2023-04-09T18:16:11.960Z,7.14
2023-04-09T18:18:38.898Z,7.05
2023-04-09T18:21:06.341Z,6.92
2023-04-09T18:23:32.860Z,6.87
2023-04-09T18:25:59.158Z,6.80
2023-04-09T18:28:26.090Z,6.76
2023-04-09T18:30:54.054Z,6.70
2023-04-09T18:33:20.938Z,6.65
2023-04-09T18:35:47.282Z,6.58
2023-04-09T18:38:13.741Z,6.57
2023-04-09T18:40:45.981Z,6.53
2023-04-09T18:43:12.416Z,6.46
2023-04-09T18:45:39.723Z,6.45
2023-04-09T18:48:06.316Z,6.41
2023-04-09T18:50:32.691Z,6.37
2023-04-09T18:52:59.077Z,6.32
2023-04-09T18:55:25.548Z,6.30
2023-04-09T18:57:52.568Z,6.27
2023-04-09T19:00:18.968Z,6.20
2023-04-09T19:02:46.157Z,6.14
2023-04-09T19:05:12.642Z,6.07
2023-04-09T19:07:39.474Z,6.04
2023-04-09T19:10:05.959Z,6.01
2023-04-09T19:12:32.282Z,5.95
2023-04-09T19:15:00.951Z,5.89
2023-04-09T19:17:27.379Z,5.85
2023-04-09T19:19:53.778Z,5.78
2023-04-09T19:22:20.106Z,5.75
2023-04-09T19:24:46.430Z,5.70
2023-04-09T19:27:14.015Z,5.62
2023-04-09T19:29:40.412Z,5.55
2023-04-09T19:32:09.209Z,5.45
2023-04-09T19:34:35.600Z,5.37
2023-04-09T19:37:02.494Z,5.31
2023-04-09T19:39:28.821Z,5.25
2023-04-09T19:41:55.589Z,5.20
2023-04-09T19:44:22.844Z,5.16
2023-04-09T19:46:49.308Z,5.06
2023-04-09T19:49:15.692Z,5.01
2023-04-09T19:51:42.104Z,5.01
2023-04-09T19:54:10.660Z,5.00
2023-04-09T19:56:38.116Z,5.02
2023-04-09T19:59:04.492Z,5.01
2023-04-09T20:01:30.935Z,4.99
2023-04-09T20:03:57.640Z,4.95
2023-04-09T20:06:24.105Z,4.98
2023-04-09T20:08:51.501Z,4.94
2023-04-09T20:11:18.497Z,4.93
2023-04-09T20:13:48.186Z,4.92
2023-04-09T20:16:15.082Z,4.90
2023-04-09T20:18:41.443Z,4.84
2023-04-09T20:21:08.023Z,4.80
2023-04-09T20:23:34.436Z,4.76
2023-04-09T20:26:02.494Z,4.69
2023-04-09T20:28:29.586Z,4.60
2023-04-09T20:30:56.973Z,4.51
2023-04-09T20:33:23.293Z,4.55
2023-04-09T20:35:50.369Z,4.52
2023-04-09T20:38:20.456Z,4.50
2023-04-09T20:40:47.066Z,4.45
2023-04-09T20:43:13.609Z,4.40
2023-04-09T20:45:40.131Z,4.41
2023-04-09T20:48:06.704Z,4.38
2023-04-09T20:50:33.280Z,4.33
2023-04-09T20:52:59.981Z,4.28
2023-04-09T20:55:26.482Z,4.23
2023-04-09T20:57:55.599Z,4.14
2023-04-09T21:00:22.288Z,4.12
2023-04-09T21:02:48.901Z,4.08
2023-04-09T21:05:23.667Z,4.07
2023-04-09T21:07:51.294Z,4.06
2023-04-09T21:10:17.752Z,4.01
2023-04-09T21:12:44.153Z,4.01
2023-04-09T21:15:11.090Z,3.95
2023-04-09T21:17:37.567Z,3.92
2023-04-09T21:20:04.801Z,3.91
2023-04-09T21:22:31.341Z,3.86
2023-04-09T21:24:57.735Z,3.82
2023-04-09T21:27:26.161Z,3.76
2023-04-09T21:29:53.625Z,3.74
2023-04-09T21:32:20.116Z,3.75
2023-04-09T21:34:46.470Z,3.73
2023-04-09T21:37:12.864Z,3.75
2023-04-09T21:39:39.172Z,3.72
2023-04-09T21:42:07.102Z,3.67
2023-04-09T21:44:33.644Z,3.60
2023-04-09T21:47:01.396Z,3.62
2023-04-09T21:49:27.779Z,3.61
2023-04-09T21:51:55.724Z,3.60
2023-04-09T21:54:22.146Z,3.59
2023-04-09T21:56:48.487Z,3.61
2023-04-09T21:59:14.790Z,3.61
2023-04-09T22:01:41.189Z,3.61
2023-04-09T22:04:07.825Z,3.65
2023-04-09T22:06:34.237Z,3.67
2023-04-09T22:09:01.780Z,3.77
2023-04-09T22:11:28.801Z,3.84
2023-04-09T22:13:55.773Z,3.81
2023-04-09T22:16:22.253Z,3.82
2023-04-09T22:18:48.955Z,3.87
2023-04-09T22:21:16.371Z,3.87
2023-04-09T22:23:43.059Z,3.98
2023-04-09T22:26:09.556Z,3.99
2023-04-09T22:28:35.888Z,4.07
2023-04-09T22:31:02.578Z,4.12
2023-04-09T22:33:29.099Z,4.15
2023-04-09T22:35:55.484Z,4.20
2023-04-09T22:38:22.382Z,4.24
2023-04-09T22:40:48.963Z,4.24
2023-04-09T22:43:15.715Z,4.26
2023-04-09T22:45:42.039Z,4.26
2023-04-09T22:48:08.605Z,4.24
2023-04-09T22:50:35.066Z,4.23
2023-04-09T22:53:01.457Z,4.20
2023-04-09T22:55:27.823Z,4.10
2023-04-09T22:57:54.979Z,4.06
2023-04-09T23:00:22.043Z,3.99
2023-04-09T23:02:50.773Z,3.93
2023-04-09T23:05:17.839Z,4.01
2023-04-09T23:07:45.912Z,3.99
2023-04-09T23:10:17.230Z,4.01
2023-04-09T23:12:43.560Z,4.04
2023-04-09T23:15:10.153Z,4.08
2023-04-09T23:17:36.679Z,4.02
2023-04-09T23:20:03.367Z,4.02
2023-04-09T23:22:29.712Z,4.00
2023-04-09T23:24:56.603Z,4.03
2023-04-09T23:27:28.228Z,4.03
2023-04-09T23:29:57.653Z,4.00
2023-04-09T23:32:24.305Z,3.98
2023-04-09T23:34:50.711Z,3.96
2023-04-09T23:37:17.414Z,3.95
2023-04-09T23:39:43.721Z,3.93
2023-04-09T23:42:10.291Z,3.90
2023-04-09T23:44:36.717Z,3.94
2023-04-09T23:47:05.738Z,3.87
2023-04-09T23:49:32.245Z,3.83
2023-04-09T23:51:58.568Z,3.86
2023-04-09T23:54:24.874Z,3.87
2023-04-09T23:56:51.205Z,3.87
2023-04-09T23:59:17.673Z,3.86
